createdAt,value
2017-12-29T00:01:33.017Z,3.90
2017-12-29T00:03:59.899Z,3.90
2017-12-29T00:06:26.004Z,3.80
2017-12-29T00:08:52.276Z,3.60
2017-12-29T00:11:19.180Z,3.70
2017-12-29T00:13:45.291Z,3.70
2017-12-29T00:16:12.120Z,3.80
2017-12-29T00:18:38.236Z,3.70
2017-12-29T00:21:04.398Z,3.80
2017-12-29T00:23:30.651Z,3.80
2017-12-29T00:25:56.755Z,3.90
2017-12-29T00:28:22.856Z,3.90
2017-12-29T00:30:48.997Z,3.80
2017-12-29T00:33:15.209Z,3.70
2017-12-29T00:35:41.417Z,4.00
2017-12-29T00:38:07.508Z,3.80
2017-12-29T00:40:33.608Z,3.80
2017-12-29T00:43:00.592Z,3.70
2017-12-29T00:45:32.768Z,3.70
2017-12-29T00:47:58.849Z,3.60
2017-12-29T00:50:27.294Z,3.60
2017-12-29T00:52:53.380Z,3.60
2017-12-29T00:55:19.576Z,3.50
2017-12-29T00:57:45.672Z,3.60
2017-12-29T01:00:12.124Z,3.70
2017-12-29T01:02:38.257Z,3.70
2017-12-29T01:05:04.360Z,3.80
2017-12-29T01:07:30.480Z,3.60
2017-12-29T01:09:56.726Z,3.60
2017-12-29T01:12:22.951Z,3.60
2017-12-29T01:14:49.095Z,3.70
2017-12-29T01:17:15.369Z,3.80
2017-12-29T01:19:41.495Z,3.80
2017-12-29T01:22:07.711Z,3.80
2017-12-29T01:24:33.833Z,3.80
2017-12-29T01:26:59.932Z,3.80
2017-12-29T01:29:26.027Z,3.80
2017-12-29T01:31:52.131Z,3.60
2017-12-29T01:34:18.257Z,3.60
2017-12-29T01:36:44.410Z,3.70
2017-12-29T01:39:10.491Z,3.70
2017-12-29T01:41:37.522Z,3.80
2017-12-29T01:44:03.743Z,3.70
2017-12-29T01:46:30.603Z,3.70
2017-12-29T01:48:56.687Z,3.70
2017-12-29T01:51:22.783Z,3.60
2017-12-29T01:53:48.966Z,3.90
2017-12-29T01:56:15.054Z,3.50
2017-12-29T01:58:41.333Z,3.50
2017-12-29T02:01:07.461Z,3.50
2017-12-29T02:03:33.632Z,3.50
2017-12-29T02:05:59.790Z,3.30
2017-12-29T02:08:25.895Z,3.30
2017-12-29T02:10:51.999Z,3.50
2017-12-29T02:13:18.151Z,3.50
2017-12-29T02:15:47.628Z,3.40
2017-12-29T02:18:13.729Z,3.50
2017-12-29T02:20:39.902Z,3.40
2017-12-29T02:23:06.024Z,3.80
2017-12-29T02:25:32.126Z,3.50
2017-12-29T02:27:58.591Z,3.50
2017-12-29T02:30:24.736Z,3.30
2017-12-29T02:32:50.888Z,3.30
2017-12-29T02:35:17.023Z,3.40
2017-12-29T02:37:43.113Z,3.40
2017-12-29T02:40:10.040Z,3.40
2017-12-29T02:42:36.192Z,3.40
2017-12-29T02:45:03.203Z,3.40
2017-12-29T02:47:29.448Z,3.30
2017-12-29T02:49:55.632Z,3.40
2017-12-29T02:52:22.503Z,3.40
2017-12-29T02:54:49.424Z,3.30
2017-12-29T02:57:15.678Z,3.30
2017-12-29T02:59:42.225Z,3.30
2017-12-29T03:02:08.377Z,3.30
2017-12-29T03:04:34.484Z,3.20
2017-12-29T03:07:00.598Z,3.30
2017-12-29T03:09:26.706Z,3.40
2017-12-29T03:11:53.603Z,3.30
2017-12-29T03:14:19.705Z,3.30
2017-12-29T03:16:46.550Z,3.30
2017-12-29T03:19:13.389Z,3.20
2017-12-29T03:21:39.589Z,3.20
2017-12-29T03:24:05.717Z,3.30
2017-12-29T03:26:31.811Z,3.30
2017-12-29T03:28:58.660Z,3.20
2017-12-29T03:31:24.800Z,3.20
2017-12-29T03:33:51.785Z,3.30
2017-12-29T03:36:18.616Z,3.20
2017-12-29T03:38:45.463Z,3.10
2017-12-29T03:41:11.648Z,3.10
2017-12-29T03:43:37.748Z,3.20
2017-12-29T03:46:03.843Z,3.30
2017-12-29T03:48:29.935Z,3.20
2017-12-29T03:50:56.047Z,3.20
2017-12-29T03:53:22.173Z,3.40
2017-12-29T03:55:48.308Z,3.40
2017-12-29T03:58:14.474Z,3.30
2017-12-29T04:00:41.015Z,3.30
2017-12-29T04:03:07.114Z,3.20
2017-12-29T04:05:33.295Z,3.10
2017-12-29T04:07:59.380Z,3.20
2017-12-29T04:10:26.229Z,3.10
2017-12-29T04:12:53.149Z,3.20
2017-12-29T04:15:19.846Z,3.10
2017-12-29T04:17:48.721Z,3.10
2017-12-29T04:20:14.835Z,3.00
2017-12-29T04:22:41.063Z,3.10
2017-12-29T04:25:07.345Z,3.10
2017-12-29T04:27:33.432Z,3.10
2017-12-29T04:30:00.259Z,3.10
2017-12-29T04:32:26.489Z,3.10
2017-12-29T04:34:52.709Z,3.10
2017-12-29T04:37:18.812Z,3.10
2017-12-29T04:39:45.646Z,3.00
2017-12-29T04:42:11.759Z,3.00
2017-12-29T04:44:39.334Z,2.90
2017-12-29T04:47:05.796Z,2.90
2017-12-29T04:49:31.896Z,2.90
2017-12-29T04:51:58.027Z,3.00
2017-12-29T04:54:24.133Z,2.90
2017-12-29T04:56:50.346Z,2.90
2017-12-29T04:59:17.202Z,2.90
2017-12-29T05:01:43.328Z,2.90
2017-12-29T05:04:09.435Z,3.00
2017-12-29T05:06:35.539Z,3.00
2017-12-29T05:09:02.431Z,2.90
2017-12-29T05:11:28.579Z,2.90
2017-12-29T05:13:54.678Z,2.90
2017-12-29T05:16:20.773Z,2.90
2017-12-29T05:18:46.869Z,2.90
2017-12-29T05:21:13.131Z,2.90
2017-12-29T05:23:39.238Z,3.00
2017-12-29T05:26:05.344Z,2.90
2017-12-29T05:28:31.464Z,2.90
2017-12-29T05:30:57.599Z,3.00
2017-12-29T05:33:23.700Z,3.00
2017-12-29T05:35:49.892Z,2.90
2017-12-29T05:38:16.105Z,2.90
2017-12-29T05:40:42.495Z,2.90
2017-12-29T05:43:08.809Z,2.90
2017-12-29T05:45:34.956Z,2.80
2017-12-29T05:48:01.900Z,2.80
2017-12-29T05:50:28.041Z,2.80
2017-12-29T05:52:54.140Z,2.70
2017-12-29T05:55:20.519Z,2.80
2017-12-29T05:57:46.953Z,3.00
2017-12-29T06:00:13.358Z,2.90
2017-12-29T06:02:40.216Z,3.00
2017-12-29T06:05:08.619Z,3.00
2017-12-29T06:07:34.715Z,3.00
2017-12-29T06:10:00.821Z,2.90
2017-12-29T06:12:26.921Z,2.90
2017-12-29T06:14:53.095Z,2.80
2017-12-29T06:17:19.403Z,2.70
2017-12-29T06:19:46.376Z,2.80
2017-12-29T06:22:12.496Z,2.70
2017-12-29T06:24:38.622Z,2.70
2017-12-29T06:27:05.471Z,2.80
2017-12-29T06:29:31.576Z,2.80
2017-12-29T06:31:57.677Z,2.80
2017-12-29T06:34:24.663Z,2.70
2017-12-29T06:36:50.854Z,2.70
2017-12-29T06:39:17.875Z,2.60
2017-12-29T06:41:44.028Z,2.60
2017-12-29T06:44:10.160Z,2.50
2017-12-29T06:46:36.557Z,2.50
2017-12-29T06:49:02.718Z,2.90
2017-12-29T06:51:28.860Z,2.50
2017-12-29T06:53:54.946Z,2.50
2017-12-29T06:56:21.086Z,2.60
2017-12-29T06:58:47.185Z,2.60
2017-12-29T07:01:13.303Z,2.50
2017-12-29T07:03:39.608Z,2.50
2017-12-29T07:06:06.475Z,2.60
2017-12-29T07:08:32.667Z,2.50
2017-12-29T07:10:58.775Z,2.30
2017-12-29T07:13:24.877Z,2.40
2017-12-29T07:15:51.019Z,2.40
2017-12-29T07:18:17.898Z,2.30
2017-12-29T07:20:43.966Z,2.30
2017-12-29T07:23:11.034Z,2.40
2017-12-29T07:25:37.160Z,2.50
2017-12-29T07:28:03.429Z,2.40
2017-12-29T07:30:29.679Z,2.40
2017-12-29T07:32:55.814Z,2.50
2017-12-29T07:35:21.911Z,2.30
2017-12-29T07:37:48.098Z,2.30
2017-12-29T07:40:14.283Z,2.30
2017-12-29T07:42:40.392Z,2.30
2017-12-29T07:45:06.572Z,2.30
2017-12-29T07:47:32.681Z,2.30
2017-12-29T07:49:59.516Z,2.30
2017-12-29T07:52:25.604Z,2.30
2017-12-29T07:54:51.799Z,2.30
2017-12-29T07:57:18.640Z,2.30
2017-12-29T07:59:44.793Z,2.30
2017-12-29T08:02:10.945Z,2.10
2017-12-29T08:04:37.174Z,2.50
2017-12-29T08:07:03.456Z,2.40
2017-12-29T08:09:29.857Z,2.30
2017-12-29T08:11:56.700Z,2.30
2017-12-29T08:14:22.792Z,2.30
2017-12-29T08:16:49.261Z,2.20
2017-12-29T08:19:15.363Z,2.40
2017-12-29T08:21:42.200Z,2.30
2017-12-29T08:24:08.369Z,2.20
2017-12-29T08:26:40.164Z,2.20
2017-12-29T08:29:06.312Z,2.20
2017-12-29T08:31:33.123Z,2.10
2017-12-29T08:33:59.235Z,2.20
2017-12-29T08:36:25.544Z,2.30
2017-12-29T08:38:51.809Z,2.30
2017-12-29T08:41:17.940Z,2.30
2017-12-29T08:43:44.805Z,2.30
2017-12-29T08:46:10.924Z,2.40
2017-12-29T08:48:37.036Z,2.30
2017-12-29T08:51:03.184Z,2.30
2017-12-29T08:53:29.344Z,2.40
2017-12-29T08:55:55.452Z,2.40
2017-12-29T08:58:21.579Z,2.40
2017-12-29T09:00:47.715Z,2.40
2017-12-29T09:03:14.560Z,2.50
2017-12-29T09:05:40.713Z,2.40
2017-12-29T09:08:06.959Z,2.60
2017-12-29T09:10:33.061Z,2.60
2017-12-29T09:12:59.160Z,2.50
2017-12-29T09:15:25.485Z,2.60
2017-12-29T09:17:51.608Z,2.60
2017-12-29T09:20:18.854Z,2.70
2017-12-29T09:22:50.939Z,2.70
2017-12-29T09:25:17.172Z,2.60
2017-12-29T09:27:43.330Z,2.60
2017-12-29T09:30:09.500Z,2.30
2017-12-29T09:32:37.334Z,2.80
2017-12-29T09:35:03.553Z,2.80
2017-12-29T09:37:29.652Z,2.80
2017-12-29T09:39:55.753Z,2.80
2017-12-29T09:42:22.588Z,2.80
2017-12-29T09:44:48.683Z,2.80
2017-12-29T09:47:14.764Z,2.90
2017-12-29T09:49:40.861Z,2.90
2017-12-29T09:52:06.961Z,3.10
2017-12-29T09:54:33.964Z,3.00
2017-12-29T09:57:00.185Z,3.00
2017-12-29T09:59:26.293Z,2.90
2017-12-29T10:01:53.688Z,3.10
2017-12-29T10:04:20.551Z,3.10
2017-12-29T10:06:46.675Z,3.10
2017-12-29T10:09:13.505Z,3.20
2017-12-29T10:11:39.612Z,3.20
2017-12-29T10:14:05.756Z,3.20
2017-12-29T10:16:31.868Z,3.30
2017-12-29T10:18:58.105Z,3.30
2017-12-29T10:21:24.263Z,3.40
2017-12-29T10:23:50.352Z,3.40
2017-12-29T10:26:16.448Z,3.40
2017-12-29T10:28:42.552Z,3.40
2017-12-29T10:31:08.924Z,3.50
2017-12-29T10:33:35.759Z,3.60
2017-12-29T10:36:02.613Z,3.50
2017-12-29T10:38:28.707Z,3.50
2017-12-29T10:40:54.948Z,3.70
2017-12-29T10:43:21.820Z,3.60
2017-12-29T10:45:48.147Z,3.60
2017-12-29T10:48:15.516Z,3.50
2017-12-29T10:50:41.608Z,3.60
2017-12-29T10:53:08.448Z,3.70
2017-12-29T10:55:34.543Z,3.80
2017-12-29T10:58:01.360Z,3.80
2017-12-29T11:00:28.260Z,3.90
2017-12-29T11:02:54.376Z,3.80
2017-12-29T11:05:20.476Z,3.80
2017-12-29T11:07:46.575Z,3.80
2017-12-29T11:10:12.672Z,3.80
2017-12-29T11:12:39.576Z,3.80
2017-12-29T11:15:05.673Z,3.80
2017-12-29T11:17:32.491Z,3.90
2017-12-29T11:19:58.617Z,3.90
2017-12-29T11:22:24.777Z,3.90
2017-12-29T11:27:23.080Z,3.80
2017-12-29T11:29:49.191Z,3.90
2017-12-29T11:32:15.288Z,3.80
2017-12-29T11:34:41.407Z,3.80
2017-12-29T11:37:07.564Z,3.80
2017-12-29T11:39:33.711Z,3.90
2017-12-29T11:41:59.880Z,4.00
2017-12-29T11:44:26.716Z,4.00
2017-12-29T11:46:52.814Z,4.00
2017-12-29T11:49:18.949Z,4.10
2017-12-29T11:51:45.088Z,3.90
2017-12-29T11:54:11.929Z,4.20
2017-12-29T11:56:43.397Z,4.20
2017-12-29T11:59:09.480Z,4.30
2017-12-29T12:01:35.639Z,4.40
2017-12-29T12:04:01.761Z,4.30
2017-12-29T12:06:28.620Z,4.20
2017-12-29T12:08:55.506Z,4.20
2017-12-29T12:11:27.507Z,4.20
2017-12-29T12:13:53.808Z,4.20
2017-12-29T12:16:19.923Z,4.20
2017-12-29T12:18:46.771Z,4.20
2017-12-29T12:21:13.056Z,4.20
2017-12-29T12:23:39.368Z,4.20
2017-12-29T12:26:05.475Z,4.10
2017-12-29T12:28:35.339Z,4.10
2017-12-29T12:31:01.708Z,4.20
2017-12-29T12:33:28.017Z,4.30
2017-12-29T12:35:54.316Z,4.00
2017-12-29T12:38:20.651Z,4.20
2017-12-29T12:40:46.940Z,4.20
2017-12-29T12:45:44.823Z,4.20
2017-12-29T12:48:11.127Z,4.10
2017-12-29T12:50:37.441Z,4.10
2017-12-29T12:53:03.759Z,4.00
2017-12-29T12:55:30.037Z,4.10
2017-12-29T12:57:56.140Z,4.10
2017-12-29T13:00:25.883Z,4.00
2017-12-29T13:02:52.335Z,4.10
2017-12-29T13:05:18.747Z,4.10
2017-12-29T13:07:45.030Z,4.10
2017-12-29T13:10:12.108Z,4.20
2017-12-29T13:12:38.391Z,4.10
2017-12-29T13:15:11.555Z,4.00
2017-12-29T13:17:37.947Z,4.00
2017-12-29T13:20:04.315Z,4.00
2017-12-29T13:22:30.637Z,4.00
2017-12-29T13:24:57.020Z,4.00
2017-12-29T13:27:23.329Z,4.00
2017-12-29T13:29:49.691Z,4.00
2017-12-29T13:32:18.820Z,4.00
2017-12-29T13:34:45.111Z,4.10
2017-12-29T13:37:11.505Z,4.10
2017-12-29T13:39:37.906Z,4.20
2017-12-29T13:42:04.234Z,4.40
2017-12-29T13:44:31.334Z,4.20
2017-12-29T13:46:57.615Z,4.00
2017-12-29T13:49:29.680Z,4.30
2017-12-29T13:51:55.998Z,4.30
2017-12-29T13:54:22.304Z,4.40
2017-12-29T13:56:48.625Z,4.20
2017-12-29T13:59:14.931Z,4.30
2017-12-29T14:01:41.240Z,4.30
2017-12-29T14:04:09.544Z,4.20
2017-12-29T14:06:35.854Z,4.10
2017-12-29T14:09:02.933Z,4.00
2017-12-29T14:11:29.309Z,4.00
2017-12-29T14:13:55.636Z,3.90
2017-12-29T14:16:21.959Z,3.80
2017-12-29T14:18:48.255Z,3.70
2017-12-29T14:21:14.471Z,3.70
2017-12-29T14:23:45.644Z,3.60
2017-12-29T14:26:11.962Z,3.50
2017-12-29T14:28:38.287Z,3.50
2017-12-29T14:31:04.576Z,3.50
2017-12-29T14:33:30.863Z,3.50
2017-12-29T14:35:57.144Z,3.40
2017-12-29T14:38:23.435Z,3.40
2017-12-29T14:40:50.485Z,3.30
2017-12-29T14:43:20.695Z,3.30
2017-12-29T14:45:46.988Z,3.30
2017-12-29T14:48:13.296Z,3.40
2017-12-29T14:50:39.622Z,3.30
2017-12-29T14:53:05.973Z,3.60
2017-12-29T14:55:32.370Z,3.30
2017-12-29T14:57:58.665Z,3.30
2017-12-29T15:00:24.951Z,3.10
2017-12-29T15:02:55.381Z,3.00
2017-12-29T15:05:21.691Z,3.00
2017-12-29T15:07:48.866Z,3.00
2017-12-29T15:10:15.144Z,2.90
2017-12-29T15:12:42.207Z,2.80
2017-12-29T15:15:08.540Z,2.90
2017-12-29T15:17:34.843Z,2.70
2017-12-29T15:20:01.242Z,2.50
2017-12-29T15:22:31.208Z,2.30
2017-12-29T15:24:57.518Z,2.30
2017-12-29T15:27:23.910Z,2.20
2017-12-29T15:29:54.908Z,2.30
2017-12-29T15:32:21.221Z,2.20
2017-12-29T15:34:47.524Z,1.80
2017-12-29T15:37:20.821Z,2.30
2017-12-29T15:39:47.136Z,2.30
2017-12-29T15:42:13.461Z,2.40
2017-12-29T15:44:39.900Z,2.40
2017-12-29T15:47:06.229Z,2.70
2017-12-29T15:49:32.524Z,2.40
2017-12-29T15:52:04.021Z,2.40
2017-12-29T15:54:30.600Z,2.50
2017-12-29T15:56:56.923Z,2.60
2017-12-29T15:59:23.942Z,2.70
2017-12-29T16:01:50.362Z,2.80
2017-12-29T16:04:16.688Z,2.80
2017-12-29T16:06:43.019Z,2.70
2017-12-29T16:09:15.438Z,2.70
2017-12-29T16:11:41.736Z,2.70
2017-12-29T16:14:08.787Z,2.60
2017-12-29T16:16:35.725Z,2.70
2017-12-29T16:19:02.047Z,2.70
2017-12-29T16:21:28.365Z,2.70
2017-12-29T16:23:54.649Z,2.80
2017-12-29T16:26:20.935Z,2.80
2017-12-29T16:28:49.571Z,2.80
2017-12-29T16:31:15.934Z,2.80
2017-12-29T16:33:42.449Z,2.80
2017-12-29T16:36:08.860Z,2.80
2017-12-29T16:38:35.568Z,2.80
2017-12-29T16:41:01.951Z,2.80
2017-12-29T16:43:28.429Z,2.80
2017-12-29T16:45:54.916Z,2.90
2017-12-29T16:48:25.083Z,2.80
2017-12-29T16:50:51.417Z,2.80
2017-12-29T16:53:17.797Z,2.80
2017-12-29T16:55:44.951Z,2.90
2017-12-29T16:58:12.008Z,3.00
2017-12-29T17:00:38.316Z,3.00
2017-12-29T17:03:04.801Z,3.00
2017-12-29T17:08:04.796Z,3.10
2017-12-29T17:10:31.123Z,3.10
2017-12-29T17:12:58.448Z,3.30
2017-12-29T17:15:24.755Z,3.00
2017-12-29T17:17:51.126Z,3.20
2017-12-29T17:20:18.203Z,3.20
2017-12-29T17:22:48.755Z,3.20
2017-12-29T17:25:15.967Z,3.20
2017-12-29T17:27:42.917Z,3.20
2017-12-29T17:30:10.016Z,3.20
2017-12-29T17:32:36.359Z,3.00
2017-12-29T17:35:02.672Z,3.20
2017-12-29T17:40:02.700Z,3.30
2017-12-29T17:42:29.013Z,3.30
2017-12-29T17:44:56.562Z,3.30
2017-12-29T17:47:23.444Z,3.30
2017-12-29T17:49:49.829Z,3.20
2017-12-29T17:52:16.184Z,3.30
2017-12-29T17:57:14.788Z,3.30
2017-12-29T17:59:41.098Z,3.20
2017-12-29T18:02:07.762Z,3.30
2017-12-29T18:04:34.091Z,3.50
2017-12-29T18:07:00.380Z,3.60
2017-12-29T18:09:26.973Z,3.60
2017-12-29T18:11:53.462Z,3.60
2017-12-29T18:14:23.773Z,3.70
2017-12-29T18:16:50.111Z,3.70
2017-12-29T18:19:16.706Z,3.60
2017-12-29T18:21:43.159Z,3.70
2017-12-29T18:24:09.464Z,3.70
2017-12-29T18:26:35.770Z,3.60
2017-12-29T18:29:02.884Z,3.50
2017-12-29T18:31:29.406Z,3.50
2017-12-29T18:33:58.759Z,3.50
2017-12-29T18:36:25.033Z,3.60
2017-12-29T18:38:51.907Z,3.80
2017-12-29T18:41:18.259Z,3.50
2017-12-29T18:43:44.554Z,3.80
2017-12-29T18:46:11.599Z,3.70
2017-12-29T18:51:09.075Z,3.60
2017-12-29T18:53:36.126Z,3.70
2017-12-29T18:56:03.196Z,3.60
2017-12-29T18:58:29.504Z,3.60
2017-12-29T19:00:56.555Z,3.60
2017-12-29T19:03:22.851Z,3.50
2017-12-29T19:05:52.491Z,3.50
2017-12-29T19:08:18.804Z,3.50
2017-12-29T19:10:45.617Z,3.50
2017-12-29T19:13:11.952Z,3.60
2017-12-29T19:15:38.242Z,3.60
2017-12-29T19:18:05.327Z,3.60
2017-12-29T19:20:31.631Z,3.60
2017-12-29T19:22:58.007Z,3.60
2017-12-29T19:25:27.880Z,3.70
2017-12-29T19:27:54.188Z,3.90
2017-12-29T19:30:21.739Z,3.90
2017-12-29T19:32:48.107Z,4.00
2017-12-29T19:35:15.123Z,4.00
2017-12-29T19:37:41.419Z,4.00
2017-12-29T19:40:07.712Z,4.00
2017-12-29T19:42:34.859Z,3.90
2017-12-29T19:45:06.112Z,3.90
2017-12-29T19:47:33.261Z,3.90
2017-12-29T19:49:59.585Z,4.00
2017-12-29T19:52:25.873Z,4.00
2017-12-29T19:54:52.927Z,4.10
2017-12-29T19:57:19.220Z,4.10
2017-12-29T19:59:45.558Z,4.00
2017-12-29T20:02:12.108Z,3.90
2017-12-29T20:04:39.177Z,3.90
2017-12-29T20:07:06.597Z,3.90
2017-12-29T20:09:32.985Z,3.80
2017-12-29T20:11:59.937Z,4.20
2017-12-29T20:14:26.334Z,4.10
2017-12-29T20:16:59.950Z,4.30
2017-12-29T20:19:27.365Z,4.10
2017-12-29T20:21:53.675Z,4.10
2017-12-29T20:24:20.855Z,4.10
2017-12-29T20:26:47.974Z,4.20
2017-12-29T20:31:48.576Z,4.10
2017-12-29T20:34:14.897Z,4.30
2017-12-29T20:36:42.420Z,4.30
2017-12-29T20:39:09.777Z,4.20
2017-12-29T20:41:36.083Z,4.20
2017-12-29T20:46:35.524Z,4.20
2017-12-29T20:49:01.673Z,4.20
2017-12-29T20:51:28.525Z,4.40
2017-12-29T20:53:55.083Z,4.40
2017-12-29T20:56:21.207Z,4.30
2017-12-29T20:58:47.303Z,4.30
2017-12-29T21:01:19.633Z,4.40
2017-12-29T21:03:45.729Z,4.50
2017-12-29T21:06:12.086Z,4.50
2017-12-29T21:08:38.221Z,4.50
2017-12-29T21:11:04.312Z,4.50
2017-12-29T21:13:31.093Z,4.50
2017-12-29T21:15:57.224Z,4.50
2017-12-29T21:18:23.316Z,4.50
2017-12-29T21:20:53.897Z,4.50
2017-12-29T21:23:20.309Z,4.60
2017-12-29T21:25:46.760Z,4.30
2017-12-29T21:28:13.068Z,4.70
2017-12-29T21:30:40.560Z,4.70
2017-12-29T21:33:06.826Z,4.50
2017-12-29T21:35:32.922Z,4.90
2017-12-29T21:38:00.356Z,4.80
2017-12-29T21:40:29.800Z,4.80
2017-12-29T21:42:56.715Z,4.70
2017-12-29T21:45:23.108Z,4.90
2017-12-29T21:47:49.414Z,5.00
2017-12-29T21:50:17.516Z,5.00
2017-12-29T21:52:44.367Z,5.10
2017-12-29T21:55:10.459Z,5.10
2017-12-29T21:57:38.726Z,5.10
2017-12-29T22:00:05.064Z,5.10
2017-12-29T22:02:31.391Z,5.10
2017-12-29T22:04:57.698Z,5.20
2017-12-29T22:07:23.992Z,5.30
2017-12-29T22:09:50.300Z,5.30
2017-12-29T22:12:16.596Z,5.30
2017-12-29T22:14:42.876Z,5.30
2017-12-29T22:17:10.806Z,5.30
2017-12-29T22:19:37.099Z,5.40
2017-12-29T22:22:03.400Z,5.50
2017-12-29T22:24:29.704Z,5.60
2017-12-29T22:26:56.756Z,5.60
2017-12-29T22:29:24.218Z,5.60
2017-12-29T22:31:51.401Z,5.50
2017-12-29T22:34:17.734Z,5.60
2017-12-29T22:36:48.945Z,5.70
2017-12-29T22:39:15.252Z,5.60
2017-12-29T22:41:41.552Z,5.70
2017-12-29T22:44:10.105Z,5.70
2017-12-29T22:46:36.496Z,5.80
2017-12-29T22:49:03.991Z,5.70
2017-12-29T22:51:33.220Z,5.80
2017-12-29T22:53:59.540Z,5.80
2017-12-29T22:56:25.855Z,5.70
2017-12-29T22:58:52.172Z,5.80
2017-12-29T23:01:18.563Z,5.70
2017-12-29T23:03:44.875Z,5.60
2017-12-29T23:06:11.254Z,5.70
2017-12-29T23:11:09.355Z,5.70
2017-12-29T23:13:36.594Z,5.70
2017-12-29T23:16:03.028Z,5.80
2017-12-29T23:18:29.343Z,5.50
2017-12-29T23:20:55.645Z,5.80
2017-12-29T23:23:22.752Z,5.90
2017-12-29T23:25:49.812Z,5.90
2017-12-29T23:28:16.175Z,5.80
2017-12-29T23:30:42.476Z,5.90
2017-12-29T23:33:08.780Z,5.90
2017-12-29T23:35:35.473Z,5.80
2017-12-29T23:38:02.020Z,5.90
2017-12-29T23:40:28.438Z,5.80
2017-12-29T23:42:55.467Z,5.90
2017-12-29T23:45:21.563Z,5.80
2017-12-29T23:47:48.957Z,5.90
2017-12-29T23:50:15.087Z,5.90
2017-12-29T23:52:41.223Z,6.00
2017-12-29T23:55:07.319Z,6.10
2017-12-29T23:57:34.147Z,6.00
